Time;durP1;ratioP1;P1;durP2;ratioP2;P2;SDS_P1;SDS_P2;PMS_P1;PMS_P2;Temp;Humidity;BMP_temperature;BMP_pressure;BME280_temperature;BME280_humidity;BME280_pressure;Samples;Min_cycle;Max_cycle;Signal;HPM_P1;HPM_P2
2023/12/30 00:01:30;;;;;;;2.03;1.83;;;;;;;10.39;nan;99616.59;4967679;28;20213;-79
2023/12/30 00:03:55;;;;;;;4.27;1.90;;;;;;;10.36;nan;99620.25;4967986;28;20204;-79
2023/12/30 00:06:21;;;;;;;2.40;1.73;;;;;;;10.35;nan;99618.59;4968455;28;20200;-78
2023/12/30 00:08:46;;;;;;;2.73;1.80;;;;;;;10.32;nan;99615.31;4968745;28;20212;-81
2023/12/30 00:11:12;;;;;;;2.20;1.80;;;;;;;10.30;nan;99614.56;4969676;28;20213;-79
2023/12/30 00:13:38;;;;;;;1.67;1.57;;;;;;;10.27;nan;99612.97;4971064;28;20439;-79
2023/12/30 00:16:04;;;;;;;2.40;2.07;;;;;;;10.27;nan;99618.22;4967621;28;20810;-79
2023/12/30 00:18:29;;;;;;;4.55;2.08;;;;;;;10.27;nan;99614.72;4968225;28;20672;-79
2023/12/30 00:20:54;;;;;;;3.90;1.83;;;;;;;10.26;nan;99613.91;4967146;28;20212;-80
2023/12/30 00:23:20;;;;;;;5.53;1.80;;;;;;;10.28;nan;99619.91;4969562;28;20263;-79
2023/12/30 00:25:46;;;;;;;1.67;1.37;;;;;;;10.26;nan;99615.66;4965521;28;20219;-80
2023/12/30 00:28:12;;;;;;;2.90;1.77;;;;;;;10.27;nan;99612.97;4967923;28;20208;-79
2023/12/30 00:30:37;;;;;;;2.83;2.10;;;;;;;10.29;nan;99611.09;4966110;28;21158;-80
2023/12/30 00:33:04;;;;;;;4.43;1.57;;;;;;;10.28;nan;99609.41;4967522;28;20439;-79
2023/12/30 00:35:30;;;;;;;2.47;1.90;;;;;;;10.28;nan;99614.66;4965879;28;20823;-80
2023/12/30 00:37:55;;;;;;;2.30;2.00;;;;;;;10.29;nan;99615.50;4966539;28;20189;-80
2023/12/30 00:40:20;;;;;;;2.70;1.77;;;;;;;10.32;nan;99620.56;4965579;28;20216;-79
2023/12/30 00:42:46;;;;;;;8.57;2.40;;;;;;;10.35;nan;99599.38;4968507;28;20204;-80
2023/12/30 00:45:11;;;;;;;2.33;1.60;;;;;;;10.34;nan;99605.53;4968402;28;20220;-80
2023/12/30 00:47:37;;;;;;;1.93;1.73;;;;;;;10.34;nan;99602.91;4973518;28;20224;-80
2023/12/30 00:50:02;;;;;;;4.00;1.70;;;;;;;10.38;nan;99610.53;4971648;28;20382;-79
2023/12/30 00:52:28;;;;;;;5.10;1.67;;;;;;;10.39;nan;99609.56;4972546;28;20251;-80
2023/12/30 00:54:53;;;;;;;2.40;1.47;;;;;;;10.40;nan;99613.06;4966674;28;20215;-77
2023/12/30 00:57:19;;;;;;;3.03;1.60;;;;;;;10.45;nan;99621.50;4967055;28;20314;-77
2023/12/30 00:59:44;;;;;;;4.13;1.93;;;;;;;10.49;nan;99612.47;4969817;28;20204;-77
2023/12/30 01:02:09;;;;;;;2.03;1.47;;;;;;;10.48;nan;99615.22;4970664;28;20293;-80
2023/12/30 01:04:35;;;;;;;1.60;1.27;;;;;;;10.49;nan;99622.97;4968742;28;20638;-80
2023/12/30 01:07:00;;;;;;;3.30;1.30;;;;;;;10.51;nan;99607.13;4970664;28;20350;-77
2023/12/30 01:09:26;;;;;;;3.77;2.43;;;;;;;10.50;nan;99621.19;4971841;28;20222;-78
2023/12/30 01:11:51;;;;;;;1.63;1.20;;;;;;;10.50;nan;99624.66;4967191;28;20224;-78
2023/12/30 01:14:16;;;;;;;4.10;1.40;;;;;;;10.52;nan;99624.56;4964616;28;20208;-78
2023/12/30 01:16:42;;;;;;;1.93;1.30;;;;;;;10.54;nan;99627.94;4962216;28;20200;-78
2023/12/30 01:19:07;;;;;;;3.27;1.37;;;;;;;10.55;nan;99627.00;4965640;28;20315;-78
2023/12/30 01:21:33;;;;;;;1.70;1.40;;;;;;;10.58;nan;99624.16;4965931;28;20290;-78
2023/12/30 01:23:59;;;;;;;5.00;1.77;;;;;;;10.57;nan;99622.50;4964048;28;20202;-77
2023/12/30 01:26:24;;;;;;;2.07;1.50;;;;;;;10.60;nan;99620.50;4962927;28;20477;-78
2023/12/30 01:28:50;;;;;;;1.90;1.63;;;;;;;10.63;nan;99633.44;4963894;28;20212;-78
2023/12/30 01:31:17;;;;;;;3.80;2.67;;;;;;;10.60;nan;99624.91;4964475;28;20197;-81
2023/12/30 01:33:42;;;;;;;2.38;2.17;;;;;;;10.62;nan;99623.03;4960457;28;20791;-79
2023/12/30 01:36:08;;;;;;;2.83;2.10;;;;;;;10.62;nan;99630.94;4959800;28;20235;-78
2023/12/30 01:38:34;;;;;;;3.43;1.50;;;;;;;10.60;nan;99627.53;4957746;28;20204;-78
2023/12/30 01:41:02;;;;;;;4.73;2.13;;;;;;;10.64;nan;99634.31;4978402;22;20685;-81
2023/12/30 01:43:30;;;;;;;1.65;1.52;;;;;;;10.63;nan;99633.44;4946444;28;20199;-85
2023/12/30 01:46:01;;;;;;;1.70;1.60;;;;;;;10.64;nan;99634.31;4951904;28;20222;-86
2023/12/30 01:48:28;;;;;;;2.58;1.45;;;;;;;10.63;nan;99635.22;4971921;28;20195;-84
2023/12/30 01:50:59;;;;;;;2.72;1.92;;;;;;;10.62;nan;99630.94;4987017;28;20616;-85
2023/12/30 01:53:26;;;;;;;1.48;1.02;;;;;;;10.62;nan;99634.41;4981140;28;20346;-86
2023/12/30 01:55:53;;;;;;;2.85;1.40;;;;;;;10.59;nan;99641.63;4981757;28;20192;-84
2023/12/30 01:58:20;;;;;;;2.45;1.20;;;;;;;10.59;nan;99647.72;4984106;28;20203;-83
2023/12/30 02:00:51;;;;;;;1.40;1.20;;;;;;;10.60;nan;99646.78;4963421;28;20318;-85
2023/12/30 02:03:17;;;;;;;7.15;1.27;;;;;;;10.62;nan;99646.69;4964430;28;20195;-85
2023/12/30 02:05:45;;;;;;;2.20;1.23;;;;;;;10.62;nan;99649.31;4962128;28;20274;-82
2023/12/30 02:08:11;;;;;;;2.05;1.10;;;;;;;10.62;nan;99646.69;4980658;28;20226;-85
2023/12/30 02:10:37;;;;;;;3.10;1.60;;;;;;;10.61;nan;99650.22;4980878;28;21023;-82
2023/12/30 02:13:02;;;;;;;2.87;1.50;;;;;;;10.61;nan;99658.13;4964378;28;20261;-83
2023/12/30 02:15:27;;;;;;;2.00;1.60;;;;;;;10.60;nan;99651.19;4981431;28;20199;-84
2023/12/30 02:17:56;;;;;;;2.90;1.20;;;;;;;10.61;nan;99652.88;4963900;28;20632;-84
2023/12/30 02:20:22;;;;;;;2.50;1.10;;;;;;;10.59;nan;99647.72;4962383;28;20381;-82
2023/12/30 02:22:48;;;;;;;2.50;1.30;;;;;;;10.57;nan;99649.59;4980970;28;20334;-85
2023/12/30 02:25:14;;;;;;;3.33;1.97;;;;;;;10.59;nan;99652.13;4961569;28;20219;-84
2023/12/30 02:27:44;;;;;;;2.15;1.60;;;;;;;10.60;nan;99651.19;4978316;28;20450;-83
2023/12/30 02:30:11;;;;;;;2.35;1.40;;;;;;;10.58;nan;99650.44;4959939;28;20218;-81
2023/12/30 02:32:36;;;;;;;1.30;1.10;;;;;;;10.55;nan;99659.34;4961079;28;20345;-82
2023/12/30 02:35:05;;;;;;;2.30;1.10;;;;;;;10.56;nan;99654.97;4961728;28;20515;-81
2023/12/30 02:37:31;;;;;;;2.53;1.40;;;;;;;10.57;nan;99656.63;4980100;28;20238;-85
2023/12/30 02:39:56;;;;;;;1.80;1.27;;;;;;;10.57;nan;99656.63;4980670;28;20781;-84
2023/12/30 02:42:22;;;;;;;1.80;1.30;;;;;;;10.57;nan;99662.72;4962933;28;20319;-81
2023/12/30 02:44:47;;;;;;;1.50;1.30;;;;;;;10.58;nan;99663.56;4960103;28;20212;-85
2023/12/30 02:47:13;;;;;;;1.50;1.40;;;;;;;10.58;nan;99666.19;4961279;28;20215;-82
2023/12/30 02:49:42;;;;;;;3.47;1.30;;;;;;;10.57;nan;99662.72;4962717;28;20285;-81
2023/12/30 02:52:07;;;;;;;1.83;1.65;;;;;;;10.58;nan;99663.56;4960877;28;20306;-83
2023/12/30 02:54:34;;;;;;;2.13;1.60;;;;;;;10.56;nan;99661.06;4960423;28;20817;-84
2023/12/30 02:57:02;;;;;;;4.70;1.45;;;;;;;10.56;nan;99666.31;4961091;28;21103;-83
2023/12/30 02:59:31;;;;;;;2.15;1.48;;;;;;;10.54;nan;99668.19;4962235;28;20227;-84
2023/12/30 03:01:56;;;;;;;2.05;1.80;;;;;;;10.56;nan;99660.22;4962902;28;20212;-81
2023/12/30 03:04:22;;;;;;;4.80;1.70;;;;;;;10.53;nan;99652.50;4959921;28;20223;-83
2023/12/30 03:06:48;;;;;;;1.90;1.70;;;;;;;10.52;nan;99656.91;4962076;28;20500;-84
2023/12/30 03:09:14;;;;;;;2.70;1.60;;;;;;;10.50;nan;99653.53;4962232;28;20207;-84
2023/12/30 03:11:39;;;;;;;2.60;1.43;;;;;;;10.49;nan;99656.28;4956427;28;20219;-82
2023/12/30 03:14:05;;;;;;;2.30;1.50;;;;;;;10.47;nan;99653.72;4960508;28;20216;-85
2023/12/30 03:16:31;;;;;;;2.43;1.30;;;;;;;10.48;nan;99654.59;4958838;28;20200;-85
2023/12/30 03:18:57;;;;;;;2.15;1.40;;;;;;;10.50;nan;99665.81;4957776;28;20196;-82
2023/12/30 03:21:22;;;;;;;2.43;1.63;;;;;;;10.49;nan;99653.66;4960895;28;20208;-83
2023/12/30 03:23:48;;;;;;;3.17;1.40;;;;;;;10.48;nan;99657.22;4961839;28;20348;-86
2023/12/30 03:26:13;;;;;;;1.93;1.40;;;;;;;10.49;nan;99661.53;4962902;28;20211;-84
2023/12/30 03:28:39;;;;;;;2.30;1.57;;;;;;;10.48;nan;99644.94;4962846;28;20838;-82
2023/12/30 03:31:06;;;;;;;2.63;1.50;;;;;;;10.50;nan;99644.81;4959090;28;20215;-82
2023/12/30 03:33:32;;;;;;;3.65;1.73;;;;;;;10.48;nan;99642.31;4964134;28;20212;-82
2023/12/30 03:35:57;;;;;;;1.90;1.60;;;;;;;10.50;nan;99643.03;4960878;28;20700;-83
2023/12/30 03:38:23;;;;;;;3.40;1.80;;;;;;;10.55;nan;99645.38;4960837;28;20463;-82
2023/12/30 03:40:48;;;;;;;2.03;1.40;;;;;;;10.55;nan;99653.25;4956081;28;20328;-85
2023/12/30 03:43:14;;;;;;;4.60;2.73;;;;;;;10.56;nan;99654.97;4964488;28;20291;-83
2023/12/30 03:45:39;;;;;;;2.60;1.50;;;;;;;10.57;nan;99649.59;4952245;28;20254;-82
2023/12/30 03:48:06;;;;;;;4.17;1.93;;;;;;;10.59;nan;99644.25;4963297;28;20222;-85
2023/12/30 03:50:31;;;;;;;4.10;2.10;;;;;;;10.59;nan;99646.88;4965357;28;20215;-84
2023/12/30 03:52:57;;;;;;;2.67;1.90;;;;;;;10.60;nan;99643.31;4947201;28;20254;-82
2023/12/30 03:55:22;;;;;;;1.97;1.70;;;;;;;10.61;nan;99642.34;4953340;28;20231;-82
2023/12/30 03:57:52;;;;;;;4.97;2.80;;;;;;;10.65;nan;99640.41;4964649;28;20204;-82
2023/12/30 04:00:18;;;;;;;3.92;2.58;;;;;;;10.67;nan;99638.53;4953414;28;20276;-82
2023/12/30 04:02:43;;;;;;;3.03;2.53;;;;;;;10.68;nan;99641.03;4950381;28;20287;-85
2023/12/30 04:05:09;;;;;;;2.33;1.90;;;;;;;10.69;nan;99642.72;4969122;28;20197;-85
2023/12/30 04:07:36;;;;;;;2.13;1.70;;;;;;;10.71;nan;99630.31;4952802;28;20421;-84
2023/12/30 04:10:01;;;;;;;3.22;2.40;;;;;;;10.72;nan;99628.53;4970154;28;20200;-83
2023/12/30 04:12:27;;;;;;;6.43;2.90;;;;;;;10.73;nan;99631.09;4967484;28;20228;-86
2023/12/30 04:14:52;;;;;;;3.90;1.93;;;;;;;10.75;nan;99634.47;4974040;28;20867;-84
2023/12/30 04:17:18;;;;;;;2.93;2.10;;;;;;;10.75;nan;99634.47;4962357;28;20199;-82
2023/12/30 04:19:43;;;;;;;3.07;2.77;;;;;;;10.75;nan;99634.47;4979414;28;20246;-83
2023/12/30 04:22:09;;;;;;;3.30;2.53;;;;;;;10.76;nan;99632.66;4980163;28;20215;-82
2023/12/30 04:24:34;;;;;;;3.57;2.00;;;;;;;10.76;nan;99633.50;4956014;28;20226;-83
2023/12/30 04:27:00;;;;;;;3.87;2.37;;;;;;;10.75;nan;99634.47;4980774;28;20527;-81
2023/12/30 04:29:26;;;;;;;2.30;2.10;;;;;;;10.75;nan;99637.09;4966204;28;20211;-84
2023/12/30 04:31:52;;;;;;;3.85;2.20;;;;;;;10.76;nan;99630.03;4972823;28;20212;-84
2023/12/30 04:34:17;;;;;;;3.30;1.90;;;;;;;10.78;nan;99636.06;4975157;28;20289;-82
2023/12/30 04:36:43;;;;;;;2.03;1.57;;;;;;;10.76;nan;99630.03;4966673;28;20196;-82
2023/12/30 04:39:08;;;;;;;2.30;2.00;;;;;;;10.77;nan;99635.19;4947437;28;20556;-82
2023/12/30 04:41:33;;;;;;;5.47;2.40;;;;;;;10.76;nan;99640.56;4953760;28;20229;-83
2023/12/30 04:43:59;;;;;;;3.47;1.63;;;;;;;10.72;nan;99637.28;4962390;28;20228;-82
2023/12/30 04:46:24;;;;;;;3.97;2.10;;;;;;;10.70;nan;99641.78;4957569;28;20216;-85
2023/12/30 04:48:53;;;;;;;3.27;1.97;;;;;;;10.68;nan;99648.91;4962766;28;20314;-83
2023/12/30 04:51:19;;;;;;;3.13;2.00;;;;;;;10.62;nan;99651.94;4970344;28;20204;-82
2023/12/30 04:53:44;;;;;;;1.87;1.40;;;;;;;10.63;nan;99658.88;4960282;28;20209;-84
2023/12/30 04:56:17;;;;;;;2.87;1.67;;;;;;;10.58;nan;99659.16;4957386;28;20211;-83
2023/12/30 04:58:43;;;;;;;2.08;1.75;;;;;;;10.55;nan;99661.13;4958500;28;20258;-85
2023/12/30 05:01:08;;;;;;;2.53;1.43;;;;;;;10.51;nan;99652.63;4973521;28;20216;-83
2023/12/30 05:03:35;;;;;;;5.50;2.40;;;;;;;10.48;nan;99662.47;4958280;28;20224;-85
2023/12/30 05:06:02;;;;;;;3.83;1.85;;;;;;;10.44;nan;99669.69;4957047;28;20311;-84
2023/12/30 05:08:27;;;;;;;3.45;1.77;;;;;;;10.44;nan;99663.59;4958554;28;20200;-85
2023/12/30 05:10:53;;;;;;;5.87;2.47;;;;;;;10.38;nan;99660.41;4960329;28;20215;-85
2023/12/30 05:13:18;;;;;;;2.43;1.53;;;;;;;10.35;nan;99672.88;4958332;28;20446;-83
2023/12/30 05:15:43;;;;;;;3.67;2.37;;;;;;;10.31;nan;99668.75;4960001;28;20232;-84
2023/12/30 05:18:11;;;;;;;3.00;1.87;;;;;;;10.30;nan;99669.69;4960209;28;20204;-84
2023/12/30 05:20:37;;;;;;;2.65;1.50;;;;;;;10.27;nan;99677.75;4958771;28;20223;-82
2023/12/30 05:23:02;;;;;;;1.80;1.30;;;;;;;10.27;nan;99659.34;4957695;28;20204;-85
2023/12/30 05:25:27;;;;;;;2.03;1.57;;;;;;;10.28;nan;99674.19;4956839;28;20227;-85
2023/12/30 05:27:53;;;;;;;2.43;1.57;;;;;;;10.30;nan;99667.06;4958486;28;20292;-82
2023/12/30 05:30:18;;;;;;;2.37;1.90;;;;;;;10.33;nan;99672.13;4957930;28;20197;-82
2023/12/30 05:32:44;;;;;;;2.03;1.60;;;;;;;10.38;nan;99668.28;4958846;28;20384;-83
2023/12/30 05:35:09;;;;;;;2.00;1.43;;;;;;;10.40;nan;99674.28;4957522;28;20196;-83
2023/12/30 05:37:35;;;;;;;1.67;1.50;;;;;;;10.43;nan;99673.25;4958060;28;20230;-82
2023/12/30 05:40:01;;;;;;;1.53;1.43;;;;;;;10.44;nan;99669.69;4958727;28;20196;-83
2023/12/30 05:42:26;;;;;;;1.63;1.40;;;;;;;10.45;nan;99673.16;4958072;28;20225;-86
2023/12/30 05:44:51;;;;;;;2.03;1.80;;;;;;;10.46;nan;99665.19;4957661;28;20501;-83
2023/12/30 05:47:17;;;;;;;3.67;2.57;;;;;;;10.46;nan;99667.81;4958394;28;20220;-84
2023/12/30 05:49:42;;;;;;;4.10;1.50;;;;;;;10.45;nan;99660.00;4959025;28;20195;-86
2023/12/30 05:52:08;;;;;;;6.13;1.90;;;;;;;10.41;nan;99665.47;4960597;28;20213;-85
2023/12/30 05:54:34;;;;;;;2.37;1.33;;;;;;;10.41;nan;99668.09;4958875;28;20834;-84
2023/12/30 05:57:02;;;;;;;2.13;1.58;;;;;;;10.39;nan;99677.84;4958351;28;20569;-81
2023/12/30 05:59:28;;;;;;;2.85;1.55;;;;;;;10.39;nan;99677.00;4958333;28;20679;-85
2023/12/30 06:01:53;;;;;;;6.50;1.80;;;;;;;10.38;nan;99672.69;4958230;28;20491;-83
2023/12/30 06:04:19;;;;;;;1.67;1.30;;;;;;;10.35;nan;99668.47;4957817;28;20795;-83
2023/12/30 06:06:44;;;;;;;2.60;1.40;;;;;;;10.34;nan;99666.81;4958280;28;20262;-84
2023/12/30 06:09:10;;;;;;;2.90;1.60;;;;;;;10.33;nan;99666.88;4958604;28;20539;-85
2023/12/30 06:11:36;;;;;;;4.93;2.03;;;;;;;10.28;nan;99661.91;4951861;28;20650;-82
2023/12/30 06:14:01;;;;;;;2.40;1.30;;;;;;;10.27;nan;99667.22;4950459;28;20200;-86
2023/12/30 06:16:26;;;;;;;3.77;1.80;;;;;;;10.24;nan;99680.56;4955422;28;20381;-83
2023/12/30 06:18:52;;;;;;;2.13;1.83;;;;;;;10.22;nan;99677.16;4952626;28;20962;-84
2023/12/30 06:21:17;;;;;;;1.90;1.70;;;;;;;10.18;nan;99680.00;4953404;28;20236;-84
2023/12/30 06:23:43;;;;;;;2.77;1.53;;;;;;;10.15;nan;99674.94;4953086;28;20211;-84
2023/12/30 06:26:08;;;;;;;1.73;1.40;;;;;;;10.12;nan;99682.13;4954911;28;20216;-83
2023/12/30 06:28:33;;;;;;;2.27;1.80;;;;;;;10.12;nan;99682.13;4953154;28;20196;-84
2023/12/30 06:30:59;;;;;;;1.97;1.50;;;;;;;10.06;nan;99688.59;4955708;28;20285;-82
2023/12/30 06:33:25;;;;;;;5.40;2.07;;;;;;;10.04;nan;99694.88;4956637;28;20208;-82
2023/12/30 06:35:50;;;;;;;2.60;1.80;;;;;;;10.02;nan;99701.97;4951568;28;20195;-82
2023/12/30 06:38:16;;;;;;;2.67;1.63;;;;;;;9.97;nan;99705.72;4955457;28;20197;-81
2023/12/30 06:40:42;;;;;;;3.72;1.80;;;;;;;9.93;nan;99708.63;4960059;28;20280;-81
2023/12/30 06:43:08;;;;;;;3.20;1.80;;;;;;;9.89;nan;99704.50;4977647;28;20282;-82
2023/12/30 06:45:34;;;;;;;5.25;2.30;;;;;;;9.84;nan;99703.94;4979300;28;20261;-82
2023/12/30 06:47:59;;;;;;;3.60;2.27;;;;;;;9.79;nan;99700.72;4975389;28;20212;-82
2023/12/30 06:50:25;;;;;;;3.67;1.83;;;;;;;9.76;nan;99701.75;4975011;28;20206;-81
2023/12/30 06:52:50;;;;;;;6.67;3.33;;;;;;;9.71;nan;99709.88;4974201;28;20330;-82
2023/12/30 06:55:16;;;;;;;9.73;3.33;;;;;;;9.68;nan;99709.22;4974472;28;20921;-82
2023/12/30 06:57:41;;;;;;;6.47;3.10;;;;;;;9.64;nan;99702.47;4976168;28;20204;-82
2023/12/30 07:00:07;;;;;;;2.83;2.20;;;;;;;9.63;nan;99713.91;4977188;28;20670;-82
2023/12/30 07:02:33;;;;;;;2.00;1.63;;;;;;;9.61;nan;99703.47;4976119;28;20215;-81
2023/12/30 07:04:59;;;;;;;2.67;1.45;;;;;;;9.61;nan;99710.50;4981217;28;20192;-81
2023/12/30 07:07:24;;;;;;;2.33;1.60;;;;;;;9.60;nan;99703.59;4982255;28;20506;-81
2023/12/30 07:09:50;;;;;;;1.53;1.30;;;;;;;9.60;nan;99708.84;4984943;28;20254;-77
2023/12/30 07:12:16;;;;;;;2.03;1.60;;;;;;;9.60;nan;99712.28;4972195;28;20758;-78
2023/12/30 07:14:42;;;;;;;2.38;1.75;;;;;;;9.63;nan;99706.03;4975384;28;20196;-78
2023/12/30 07:17:07;;;;;;;1.87;1.37;;;;;;;9.67;nan;99711.00;4976002;28;21102;-78
2023/12/30 07:19:33;;;;;;;2.77;2.50;;;;;;;9.71;nan;99720.38;4974912;28;20841;-78
2023/12/30 07:21:59;;;;;;;2.10;1.90;;;;;;;9.75;nan;99715.81;4972946;28;20584;-78
2023/12/30 07:24:25;;;;;;;6.45;2.20;;;;;;;9.79;nan;99724.34;4975766;28;20684;-78
2023/12/30 07:26:50;;;;;;;3.47;2.40;;;;;;;9.82;nan;99732.03;4975634;28;20225;-78
2023/12/30 07:29:15;;;;;;;2.40;1.90;;;;;;;9.85;nan;99735.31;4974341;28;20199;-78
2023/12/30 07:31:41;;;;;;;1.93;1.57;;;;;;;9.90;nan;99730.63;4976198;28;20199;-78
2023/12/30 07:34:06;;;;;;;2.27;2.07;;;;;;;9.93;nan;99722.59;4976087;28;20207;-78
2023/12/30 07:36:32;;;;;;;4.37;1.67;;;;;;;9.97;nan;99731.13;4978210;28;20214;-78
2023/12/30 07:38:57;;;;;;;2.03;1.60;;;;;;;9.97;nan;99724.09;4978328;28;20203;-78
2023/12/30 07:41:23;;;;;;;3.30;1.80;;;;;;;10.03;nan;99732.56;4978798;28;20466;-80
2023/12/30 07:43:49;;;;;;;5.83;2.57;;;;;;;10.05;nan;99731.53;4970626;28;20750;-80
2023/12/30 07:46:14;;;;;;;4.23;2.40;;;;;;;10.07;nan;99736.66;4974064;28;20247;-80
2023/12/30 07:48:40;;;;;;;5.40;2.70;;;;;;;10.10;nan;99744.34;4974443;28;20826;-79
2023/12/30 07:51:06;;;;;;;6.90;2.80;;;;;;;10.13;nan;99742.41;4969598;28;20575;-79
2023/12/30 07:53:31;;;;;;;3.37;2.30;;;;;;;10.15;nan;99739.69;4972527;28;20204;-79
2023/12/30 07:55:57;;;;;;;2.43;1.73;;;;;;;10.18;nan;99739.53;4969738;28;20214;-80
2023/12/30 07:58:22;;;;;;;5.83;1.83;;;;;;;10.20;nan;99756.00;4970680;28;20462;-80
2023/12/30 08:00:48;;;;;;;3.90;1.77;;;;;;;10.22;nan;99750.66;4971149;28;20684;-79
2023/12/30 08:03:13;;;;;;;5.20;2.37;;;;;;;10.24;nan;99749.66;4969373;28;20393;-80
2023/12/30 08:05:39;;;;;;;2.73;2.43;;;;;;;10.26;nan;99739.91;4963719;28;20215;-80
2023/12/30 08:08:06;;;;;;;1.90;1.30;;;;;;;10.30;nan;99751.94;4962074;28;20203;-80
2023/12/30 08:10:32;;;;;;;1.83;1.50;;;;;;;10.34;nan;99753.44;4961170;28;20210;-80
2023/12/30 08:12:58;;;;;;;6.68;1.88;;;;;;;10.37;nan;99753.25;4961681;28;20201;-81
2023/12/30 08:15:24;;;;;;;2.63;2.05;;;;;;;10.40;nan;99747.81;4958462;28;20921;-79
2023/12/30 08:17:50;;;;;;;3.30;1.90;;;;;;;10.44;nan;99750.25;4960804;28;20211;-79
2023/12/30 08:20:15;;;;;;;3.70;2.90;;;;;;;10.47;nan;99745.66;4957926;28;20463;-79
2023/12/30 08:22:41;;;;;;;2.23;1.90;;;;;;;10.52;nan;99750.63;4956332;28;20197;-79
2023/12/30 08:25:10;;;;;;;3.17;2.40;;;;;;;10.57;nan;99745.94;4964782;28;20207;-80
2023/12/30 08:27:36;;;;;;;2.40;1.60;;;;;;;10.60;nan;99751.00;4962774;28;20393;-80
2023/12/30 08:30:02;;;;;;;1.90;1.70;;;;;;;10.66;nan;99752.41;4956140;28;20717;-80
2023/12/30 08:32:28;;;;;;;1.80;1.45;;;;;;;10.68;nan;99746.13;4963653;28;20475;-80
2023/12/30 08:34:54;;;;;;;3.13;2.43;;;;;;;10.72;nan;99747.63;4958637;28;20234;-80
2023/12/30 08:37:20;;;;;;;4.00;2.25;;;;;;;10.75;nan;99746.59;4956828;28;20196;-77
2023/12/30 08:39:45;;;;;;;4.17;1.73;;;;;;;10.77;nan;99739.44;4957254;28;20282;-77
2023/12/30 08:42:11;;;;;;;3.00;2.07;;;;;;;10.78;nan;99739.34;4952398;28;20917;-78
2023/12/30 08:44:43;;;;;;;5.50;2.40;;;;;;;10.79;nan;99745.44;4948920;28;20455;-79
2023/12/30 08:47:12;;;;;;;6.00;3.05;;;;;;;10.81;nan;99744.41;4951453;28;20262;-79
2023/12/30 08:49:38;;;;;;;2.15;1.92;;;;;;;10.86;nan;99754.66;4952333;28;20250;-79
2023/12/30 08:52:06;;;;;;;2.55;1.85;;;;;;;10.91;nan;99754.34;4950008;28;20227;-78
2023/12/30 08:54:32;;;;;;;2.42;2.22;;;;;;;10.94;nan;99751.56;4953226;28;20200;-79
2023/12/30 08:56:57;;;;;;;4.30;2.40;;;;;;;10.98;nan;99758.28;4951567;28;21072;-79
2023/12/30 08:59:24;;;;;;;3.80;2.63;;;;;;;11.02;nan;99749.28;4952207;28;20219;-79
2023/12/30 09:01:50;;;;;;;3.97;2.70;;;;;;;11.05;nan;99746.44;4956943;28;20204;-80
2023/12/30 09:04:15;;;;;;;3.83;2.93;;;;;;;11.10;nan;99751.41;4956383;28;20210;-79
2023/12/30 09:06:40;;;;;;;5.80;2.57;;;;;;;11.19;nan;99740.31;4959367;28;20270;-80
2023/12/30 09:09:06;;;;;;;2.80;2.00;;;;;;;11.23;nan;99752.31;4955480;28;20223;-80
2023/12/30 09:11:37;;;;;;;3.00;2.40;;;;;;;11.24;nan;99749.59;4959563;28;20217;-80
2023/12/30 09:14:04;;;;;;;3.95;2.40;;;;;;;11.26;nan;99746.84;4970511;28;20208;-79
2023/12/30 09:16:29;;;;;;;3.45;2.05;;;;;;;11.26;nan;99750.34;4960871;28;20588;-78
2023/12/30 09:18:58;;;;;;;5.10;2.90;;;;;;;11.27;nan;99746.75;4961419;28;20204;-79
2023/12/30 09:21:23;;;;;;;7.70;2.83;;;;;;;11.27;nan;99749.38;4965089;28;20208;-79
2023/12/30 09:23:50;;;;;;;3.30;2.23;;;;;;;11.30;nan;99737.84;4958171;28;20205;-79
2023/12/30 09:26:16;;;;;;;2.58;1.65;;;;;;;11.33;nan;99734.16;4952563;28;20868;-78
2023/12/30 09:28:42;;;;;;;2.45;2.20;;;;;;;11.34;nan;99739.34;4955481;28;20215;-80
2023/12/30 09:31:08;;;;;;;5.13;1.97;;;;;;;11.34;nan;99733.22;4956236;28;20271;-79
2023/12/30 09:33:33;;;;;;;2.20;2.00;;;;;;;11.38;nan;99737.34;4958383;28;20210;-79
2023/12/30 09:36:01;;;;;;;3.03;2.27;;;;;;;11.42;nan;99736.19;4959836;28;20203;-79
2023/12/30 09:38:27;;;;;;;4.35;2.00;;;;;;;11.49;nan;99745.38;4963314;28;20206;-79
2023/12/30 09:40:54;;;;;;;3.30;1.67;;;;;;;11.61;nan;99738.44;4923362;28;1075755;-79
2023/12/30 09:43:41;;;;;;;5.35;2.38;;;;;;;11.97;nan;99740.47;4962413;28;20713;-80
2023/12/30 09:46:09;;;;;;;3.22;1.50;;;;;;;12.38;nan;99739.44;4965989;28;20227;-80
2023/12/30 09:48:35;;;;;;;7.07;2.28;;;;;;;12.52;nan;99731.41;4965032;28;20471;-80
2023/12/30 09:51:00;;;;;;;2.92;1.50;;;;;;;12.74;nan;99737.81;4960205;28;20204;-80
2023/12/30 09:53:26;;;;;;;2.17;1.40;;;;;;;12.99;nan;99729.03;4966255;28;20204;-80
2023/12/30 09:55:52;;;;;;;2.85;1.95;;;;;;;13.60;nan;99731.66;4964202;28;20206;-80
2023/12/30 09:58:19;;;;;;;3.20;1.83;;;;;;;14.54;nan;99722.75;4963735;28;20286;-79
2023/12/30 10:00:46;;;;;;;2.10;1.50;;;;;;;15.52;nan;99719.31;4962686;28;20219;-80
2023/12/30 10:03:12;;;;;;;2.47;1.60;;;;;;;16.30;nan;99718.06;4965754;28;20838;-80
2023/12/30 10:05:38;;;;;;;2.05;1.40;;;;;;;17.02;nan;99709.16;4964334;28;20208;-79
2023/12/30 10:08:04;;;;;;;2.00;1.40;;;;;;;17.59;nan;99710.19;4969601;28;20199;-80
2023/12/30 10:10:47;;;;;;;1.65;1.30;;;;;;;17.59;nan;99701.38;4962971;28;20252;-79
2023/12/30 10:13:16;;;;;;;3.15;1.73;;;;;;;17.29;nan;99699.72;4966562;28;20204;-79
2023/12/30 10:15:42;;;;;;;2.47;1.40;;;;;;;16.73;nan;99703.75;4964262;28;20647;-79
2023/12/30 10:18:07;;;;;;;3.00;1.60;;;;;;;16.28;nan;99712.06;4966680;28;20661;-79
2023/12/30 10:20:43;;;;;;;3.73;1.80;;;;;;;16.03;nan;99698.25;4965361;28;20474;-80
2023/12/30 10:23:09;;;;;;;2.05;1.40;;;;;;;15.81;nan;99698.38;4964621;28;20200;-80
2023/12/30 10:25:35;;;;;;;4.63;1.60;;;;;;;15.58;nan;99705.56;4964174;28;20215;-79
2023/12/30 10:28:01;;;;;;;1.90;1.00;;;;;;;15.30;nan;99699.06;4955361;28;20203;-79
2023/12/30 10:30:30;;;;;;;1.95;1.80;;;;;;;14.97;nan;99701.66;4950344;28;20192;-80
2023/12/30 10:33:12;;;;;;;1.83;1.40;;;;;;;14.61;nan;99697.53;4948806;28;20227;-79
2023/12/30 10:35:39;;;;;;;5.00;1.27;;;;;;;14.32;nan;99705.88;4962326;28;20233;-80
2023/12/30 10:38:06;;;;;;;1.90;1.80;;;;;;;14.13;nan;99697.72;4951379;28;20209;-80
2023/12/30 10:40:32;;;;;;;4.50;2.33;;;;;;;14.00;nan;99691.69;4954904;28;20720;-80
2023/12/30 10:42:58;;;;;;;3.80;1.10;;;;;;;13.80;nan;99688.75;4951094;28;20192;-80
2023/12/30 10:45:24;;;;;;;6.53;1.70;;;;;;;13.62;nan;99692.78;4951114;28;20459;-79
2023/12/30 10:47:50;;;;;;;1.50;1.03;;;;;;;13.44;nan;99687.06;4956399;28;20227;-79
2023/12/30 10:50:16;;;;;;;5.35;1.30;;;;;;;13.30;nan;99693.38;4956764;28;20454;-79
2023/12/30 10:52:50;;;;;;;4.93;1.60;;;;;;;13.18;nan;99688.97;4957948;28;20208;-80
2023/12/30 10:55:17;;;;;;;1.27;1.17;;;;;;;13.14;nan;99679.59;4958787;28;20621;-81
2023/12/30 10:57:54;;;;;;;3.25;1.40;;;;;;;13.09;nan;99682.56;4958554;28;20204;-79
2023/12/30 11:00:20;;;;;;;2.20;1.40;;;;;;;13.06;nan;99677.50;4955158;28;20770;-79
2023/12/30 11:02:47;;;;;;;5.30;1.63;;;;;;;12.99;nan;99665.75;4956584;28;20189;-80
2023/12/30 11:05:22;;;;;;;2.47;1.67;;;;;;;12.98;nan;99664.03;4957617;28;20536;-79
2023/12/30 11:07:48;;;;;;;3.20;1.77;;;;;;;12.97;nan;99663.22;4965936;28;20226;-79
2023/12/30 11:10:20;;;;;;;3.95;1.58;;;;;;;12.96;nan;99656.25;4958779;28;20195;-85
2023/12/30 11:12:55;;;;;;;1.50;1.23;;;;;;;12.95;nan;99657.19;4958321;28;20246;-83
2023/12/30 11:15:24;;;;;;;3.47;1.88;;;;;;;12.95;nan;99656.38;4961846;28;20212;-84
2023/12/30 11:18:02;;;;;;;2.47;1.33;;;;;;;12.92;nan;99652.16;4959944;28;20372;-84
2023/12/30 11:20:33;;;;;;;1.73;1.42;;;;;;;12.89;nan;99644.47;4971351;28;20308;-80
2023/12/30 11:23:03;;;;;;;3.17;1.40;;;;;;;12.85;nan;99643.00;4960845;28;20204;-80
2023/12/30 11:26:04;;;;;;;3.75;1.30;;;;;;;12.83;nan;99645.75;4961523;28;20223;-81
2023/12/30 11:28:37;;;;;;;2.22;1.48;;;;;;;12.82;nan;99643.22;4959328;28;20204;-81
2023/12/30 11:31:12;;;;;;;3.42;2.50;;;;;;;12.85;nan;99640.34;4961814;28;20297;-81
2023/12/30 11:34:00;;;;;;;3.63;1.80;;;;;;;12.90;nan;99630.31;4957244;28;20204;-81
2023/12/30 11:36:27;;;;;;;2.20;1.50;;;;;;;13.00;nan;99622.59;4961490;28;20238;-81
2023/12/30 11:38:55;;;;;;;2.15;1.30;;;;;;;13.09;nan;99614.00;4961928;28;20740;-81
2023/12/30 11:41:28;;;;;;;2.03;1.15;;;;;;;13.19;nan;99620.28;4962697;28;20244;-82
2023/12/30 11:43:55;;;;;;;1.50;1.40;;;;;;;13.32;nan;99614.97;4963593;28;20451;-80
2023/12/30 11:46:20;;;;;;;2.30;1.50;;;;;;;13.41;nan;99603.72;4960090;28;20212;-79
2023/12/30 11:48:46;;;;;;;1.30;1.13;;;;;;;13.55;nan;99601.81;4958341;28;20646;-80